createdAt,value
2023-03-12T00:00:22.379Z,3.20
2023-03-12T00:02:50.259Z,3.20
2023-03-12T00:05:18.178Z,3.20
2023-03-12T00:07:46.005Z,3.20
2023-03-12T00:10:15.822Z,3.20
2023-03-12T00:12:43.654Z,3.20
2023-03-12T00:15:11.825Z,3.10
2023-03-12T00:17:39.665Z,3.10
2023-03-12T00:20:08.109Z,3.10
2023-03-12T00:22:35.912Z,3.10
2023-03-12T00:25:12.460Z,3.00
2023-03-12T00:27:43.663Z,2.90
2023-03-12T00:30:12.790Z,2.90
2023-03-12T00:32:41.086Z,2.90
2023-03-12T00:35:09.738Z,2.90
2023-03-12T00:37:40.947Z,2.90
2023-03-12T00:40:10.970Z,2.90
2023-03-12T00:42:38.797Z,2.90
2023-03-12T00:45:09.169Z,2.90
2023-03-12T00:47:37.001Z,2.90
2023-03-12T00:50:05.781Z,2.90
2023-03-12T00:52:33.608Z,2.90
2023-03-12T00:55:01.446Z,2.90
2023-03-12T00:57:29.293Z,2.90
2023-03-12T00:59:57.106Z,2.80
2023-03-12T01:02:26.263Z,2.70
2023-03-12T01:04:54.053Z,2.70
2023-03-12T01:07:21.847Z,2.80
2023-03-12T01:09:49.644Z,2.80
2023-03-12T01:12:17.480Z,2.80
2023-03-12T01:14:45.408Z,2.70
2023-03-12T01:17:13.420Z,2.70
2023-03-12T01:19:42.535Z,2.60
2023-03-12T01:22:10.393Z,2.60
2023-03-12T01:24:38.239Z,2.60
2023-03-12T01:27:06.260Z,2.60
2023-03-12T01:29:34.186Z,2.60
2023-03-12T01:32:02.078Z,2.60
2023-03-12T01:34:30.649Z,2.70
2023-03-12T01:36:59.876Z,2.70
2023-03-12T01:39:27.665Z,2.70
2023-03-12T01:41:55.669Z,2.70
2023-03-12T01:44:23.486Z,2.70
2023-03-12T01:46:51.335Z,2.70
2023-03-12T01:49:24.019Z,2.60
2023-03-12T01:51:56.176Z,2.60
2023-03-12T01:54:29.106Z,2.70
2023-03-12T01:56:58.146Z,2.70
2023-03-12T01:59:29.105Z,2.80
2023-03-12T02:01:57.025Z,2.70
2023-03-12T02:04:28.227Z,2.70
2023-03-12T02:07:03.553Z,2.60
2023-03-12T02:09:34.627Z,2.60
2023-03-12T02:12:02.494Z,2.70
2023-03-12T02:14:30.549Z,2.80
2023-03-12T02:16:59.432Z,2.70
2023-03-12T02:19:37.012Z,2.60
2023-03-12T02:22:05.214Z,2.60
2023-03-12T02:24:40.152Z,2.70
2023-03-12T02:27:10.804Z,2.70
2023-03-12T02:29:40.258Z,2.60
2023-03-12T02:32:10.514Z,2.60
2023-03-12T02:34:38.994Z,2.60
2023-03-12T02:37:07.148Z,2.50
2023-03-12T02:39:35.104Z,2.40
2023-03-12T02:42:03.186Z,2.50
2023-03-12T02:44:34.318Z,2.40
2023-03-12T02:47:03.238Z,2.40
2023-03-12T02:49:33.374Z,2.30
2023-03-12T02:52:01.919Z,2.30
2023-03-12T02:54:30.331Z,2.20
2023-03-12T02:56:58.281Z,2.30
2023-03-12T02:59:27.044Z,2.30
2023-03-12T03:01:57.978Z,2.30
2023-03-12T03:04:26.488Z,2.20
2023-03-12T03:06:54.419Z,2.20
2023-03-12T03:09:22.408Z,2.20
2023-03-12T03:11:50.724Z,2.20
2023-03-12T03:14:19.401Z,2.20
2023-03-12T03:16:50.417Z,2.20
2023-03-12T03:19:19.810Z,2.10
2023-03-12T03:21:47.771Z,2.10
2023-03-12T03:24:16.763Z,2.20
2023-03-12T03:26:44.657Z,2.10
2023-03-12T03:29:12.540Z,2.10
2023-03-12T03:31:40.343Z,2.10
2023-03-12T03:34:08.095Z,2.10
2023-03-12T03:36:37.257Z,2.10
2023-03-12T03:39:05.277Z,2.00
2023-03-12T03:41:33.630Z,2.00
2023-03-12T03:44:01.480Z,2.10
2023-03-12T03:46:29.367Z,2.10
2023-03-12T03:48:57.297Z,2.00
2023-03-12T03:51:25.085Z,2.10
2023-03-12T03:53:54.259Z,2.10
2023-03-12T03:56:22.063Z,2.10
2023-03-12T03:58:49.930Z,2.10
2023-03-12T04:01:17.862Z,2.10
2023-03-12T04:03:45.712Z,2.10
2023-03-12T04:06:13.934Z,2.00
2023-03-12T04:08:41.820Z,2.00
2023-03-12T04:11:14.977Z,2.10
2023-03-12T04:13:43.316Z,2.10
2023-03-12T04:16:11.274Z,2.10
2023-03-12T04:18:40.152Z,2.10
2023-03-12T04:21:10.174Z,2.10
2023-03-12T04:23:38.613Z,2.10
2023-03-12T04:26:07.672Z,2.10
2023-03-12T04:28:37.564Z,2.10
2023-03-12T04:31:08.960Z,2.10
2023-03-12T04:33:41.381Z,2.20
2023-03-12T04:36:09.809Z,2.20
2023-03-12T04:38:37.886Z,2.10
2023-03-12T04:41:08.314Z,2.10
2023-03-12T04:43:37.772Z,2.10
2023-03-12T04:46:06.548Z,2.10
2023-03-12T04:48:35.313Z,2.10
2023-03-12T04:51:03.508Z,2.00
2023-03-12T04:53:31.546Z,2.00
2023-03-12T04:55:59.901Z,2.00
2023-03-12T04:58:28.111Z,1.90
2023-03-12T05:00:57.307Z,1.90
2023-03-12T05:03:25.189Z,2.00
2023-03-12T05:05:53.046Z,1.90
2023-03-12T05:08:20.946Z,1.90
2023-03-12T05:10:48.879Z,1.90
2023-03-12T05:13:18.102Z,1.80
2023-03-12T05:15:47.488Z,1.80
2023-03-12T05:18:16.706Z,1.90
2023-03-12T05:20:44.555Z,1.90
2023-03-12T05:23:12.346Z,2.00
2023-03-12T05:25:41.353Z,1.90
2023-03-12T05:28:09.339Z,1.80
2023-03-12T05:30:37.252Z,1.90
2023-03-12T05:33:05.169Z,1.90
2023-03-12T05:35:36.737Z,1.90
2023-03-12T05:38:04.713Z,1.90
2023-03-12T05:40:32.768Z,1.90
2023-03-12T05:43:00.631Z,1.90
2023-03-12T05:45:28.453Z,1.90
2023-03-12T05:47:56.546Z,1.90
2023-03-12T05:50:24.451Z,1.90
2023-03-12T05:52:53.649Z,1.90
2023-03-12T05:55:21.573Z,1.90
2023-03-12T05:57:49.404Z,2.00
2023-03-12T06:00:20.029Z,2.10
2023-03-12T06:02:47.838Z,2.10
2023-03-12T06:05:15.628Z,2.10
2023-03-12T06:07:43.504Z,2.10
2023-03-12T06:10:13.347Z,2.10
2023-03-12T06:12:41.550Z,2.20
2023-03-12T06:15:10.647Z,2.20
2023-03-12T06:17:38.555Z,2.30
2023-03-12T06:20:07.838Z,2.20
2023-03-12T06:22:35.741Z,2.20
2023-03-12T06:25:04.125Z,2.00
2023-03-12T06:27:33.507Z,2.10
2023-03-12T06:30:01.315Z,2.10
2023-03-12T06:32:29.093Z,2.30
2023-03-12T06:34:56.906Z,2.30
2023-03-12T06:37:24.706Z,2.30
2023-03-12T06:39:52.689Z,2.20
2023-03-12T06:42:20.892Z,2.20
2023-03-12T06:44:50.474Z,2.40
2023-03-12T06:47:18.677Z,2.40
2023-03-12T06:49:46.437Z,2.40
2023-03-12T06:52:14.319Z,2.40
2023-03-12T06:54:42.244Z,2.40
2023-03-12T06:57:10.115Z,2.40
2023-03-12T06:59:37.953Z,2.40
2023-03-12T07:02:07.846Z,2.50
2023-03-12T07:04:35.674Z,2.50
2023-03-12T07:07:04.778Z,2.50
2023-03-12T07:09:32.538Z,2.60
2023-03-12T07:12:00.307Z,2.70
2023-03-12T07:14:28.149Z,2.60
2023-03-12T07:16:56.637Z,2.60
2023-03-12T07:19:26.343Z,2.60
2023-03-12T07:21:54.184Z,2.70
2023-03-12T07:24:21.960Z,2.70
2023-03-12T07:26:49.786Z,2.80
2023-03-12T07:29:17.638Z,2.80
2023-03-12T07:31:45.649Z,2.90
2023-03-12T07:34:13.724Z,3.00
2023-03-12T07:36:43.238Z,3.20
2023-03-12T07:39:11.181Z,3.20
2023-03-12T07:41:39.057Z,3.20
2023-03-12T07:44:07.369Z,3.30
2023-03-12T07:46:35.304Z,3.20
2023-03-12T07:49:04.350Z,3.10
2023-03-12T07:51:32.436Z,3.10
2023-03-12T07:54:01.775Z,3.20
2023-03-12T07:56:29.595Z,3.20
2023-03-12T07:58:57.569Z,3.30
2023-03-12T08:01:31.911Z,3.30
2023-03-12T08:03:59.867Z,3.30
2023-03-12T08:06:30.638Z,3.20
2023-03-12T08:08:58.469Z,3.30
2023-03-12T08:11:28.360Z,3.40
2023-03-12T08:13:56.119Z,3.40
2023-03-12T08:16:24.190Z,3.50
2023-03-12T08:18:52.193Z,3.50
2023-03-12T08:21:20.004Z,3.50
2023-03-12T08:23:47.800Z,3.50
2023-03-12T08:26:15.726Z,3.40
2023-03-12T08:28:44.885Z,3.50
2023-03-12T08:31:12.827Z,3.50
2023-03-12T08:33:43.363Z,3.50
2023-03-12T08:36:11.864Z,3.50
2023-03-12T08:38:39.722Z,3.60
2023-03-12T08:41:07.654Z,3.60
2023-03-12T08:43:35.494Z,3.70
2023-03-12T08:46:05.179Z,3.70
2023-03-12T08:48:33.739Z,3.80
2023-03-12T08:51:04.157Z,3.80
2023-03-12T08:53:34.083Z,3.90
2023-03-12T08:56:02.155Z,4.00
2023-03-12T08:58:30.442Z,3.90
2023-03-12T09:00:58.815Z,3.90
2023-03-12T09:03:28.371Z,3.90
2023-03-12T09:06:09.703Z,4.00
2023-03-12T09:08:37.506Z,4.00
2023-03-12T09:11:05.626Z,4.00
2023-03-12T09:13:54.592Z,4.00
2023-03-12T09:16:21.263Z,4.00
2023-03-12T09:18:50.697Z,4.10
2023-03-12T09:21:18.449Z,4.10
2023-03-12T09:23:47.077Z,4.30
2023-03-12T09:26:15.498Z,4.30
2023-03-12T09:28:44.852Z,4.30
2023-03-12T09:31:13.701Z,4.40
2023-03-12T09:33:41.545Z,4.40
2023-03-12T09:36:11.187Z,4.30
2023-03-12T09:38:39.093Z,4.30
2023-03-12T09:41:16.045Z,4.20
2023-03-12T09:43:50.438Z,4.30
2023-03-12T09:46:23.712Z,4.20
2023-03-12T09:48:52.767Z,4.20
2023-03-12T09:51:28.151Z,4.20
2023-03-12T09:53:58.971Z,4.30
2023-03-12T09:56:28.185Z,4.10
2023-03-12T09:58:56.531Z,4.10
2023-03-12T10:01:38.477Z,4.30
2023-03-12T10:04:19.042Z,4.40
2023-03-12T10:06:52.623Z,4.50
2023-03-12T10:09:40.673Z,4.50
2023-03-12T10:12:16.183Z,4.50
2023-03-12T10:14:57.590Z,4.40
2023-03-12T10:17:38.158Z,4.50
2023-03-12T10:20:42.338Z,4.50
2023-03-12T10:23:20.449Z,4.50
2023-03-12T10:25:53.701Z,4.40
2023-03-12T10:28:36.892Z,4.50
2023-03-12T10:31:08.412Z,4.40
2023-03-12T10:33:45.881Z,4.40
2023-03-12T10:36:18.451Z,4.40
2023-03-12T10:38:49.316Z,4.40
2023-03-12T10:41:20.365Z,4.50
2023-03-12T10:43:48.731Z,4.50
2023-03-12T10:46:44.561Z,4.30
2023-03-12T10:49:26.895Z,4.40
2023-03-12T10:51:56.660Z,4.40
2023-03-12T10:54:30.797Z,4.40
2023-03-12T10:56:59.258Z,4.40
2023-03-12T10:59:30.307Z,4.40
2023-03-12T11:01:58.819Z,4.30
2023-03-12T11:04:30.213Z,4.30
2023-03-12T11:07:08.518Z,4.40
2023-03-12T11:09:37.671Z,4.50
2023-03-12T11:12:25.230Z,4.50
2023-03-12T11:14:53.164Z,4.50
2023-03-12T11:17:23.030Z,4.60
2023-03-12T11:19:50.822Z,4.70
2023-03-12T11:22:30.199Z,4.70
2023-03-12T11:25:00.778Z,4.80
2023-03-12T11:27:38.066Z,4.60
2023-03-12T11:30:08.968Z,4.70
2023-03-12T11:32:41.582Z,4.70
2023-03-12T11:35:12.052Z,4.80
2023-03-12T11:37:55.241Z,4.80
2023-03-12T11:40:39.073Z,5.00
2023-03-12T11:43:43.368Z,4.90
2023-03-12T11:46:28.097Z,4.90
2023-03-12T11:49:17.917Z,4.90
2023-03-12T11:51:53.434Z,4.90
2023-03-12T11:54:54.485Z,4.90
2023-03-12T11:57:35.923Z,4.90
2023-03-12T12:00:12.978Z,5.00
2023-03-12T12:03:09.673Z,5.00
2023-03-12T12:05:43.802Z,5.20
2023-03-12T12:08:40.730Z,5.10
2023-03-12T12:11:15.717Z,5.00
2023-03-12T12:13:55.403Z,5.00
2023-03-12T12:16:38.444Z,5.10
2023-03-12T12:19:20.324Z,5.10
2023-03-12T12:21:57.999Z,5.10
2023-03-12T12:24:38.959Z,5.20
2023-03-12T12:27:18.377Z,5.20
2023-03-12T12:30:04.492Z,5.30
2023-03-12T12:32:43.744Z,5.30
2023-03-12T12:35:25.950Z,5.40
2023-03-12T12:37:59.206Z,5.30
2023-03-12T12:40:30.334Z,5.20
2023-03-12T12:43:05.988Z,5.20
2023-03-12T12:45:38.754Z,5.20
2023-03-12T12:48:10.985Z,5.30
2023-03-12T12:50:40.839Z,5.30
2023-03-12T12:53:21.314Z,5.30
2023-03-12T12:55:57.379Z,5.30
2023-03-12T12:58:44.180Z,5.30
2023-03-12T13:01:16.098Z,5.40
2023-03-12T13:03:45.434Z,5.60
2023-03-12T13:06:13.248Z,5.70
2023-03-12T13:09:15.169Z,5.90
2023-03-12T13:11:47.756Z,5.90
2023-03-12T13:14:36.516Z,6.00
2023-03-12T13:17:27.695Z,6.20
2023-03-12T13:20:02.045Z,6.30
2023-03-12T13:22:51.162Z,6.30
2023-03-12T13:25:48.429Z,6.10
2023-03-12T13:28:32.630Z,6.20
2023-03-12T13:31:02.536Z,6.10
2023-03-12T13:33:45.292Z,6.30
2023-03-12T13:36:28.205Z,6.20
2023-03-12T13:38:59.611Z,6.20
2023-03-12T13:41:36.623Z,6.90
2023-03-12T13:44:38.275Z,6.90
2023-03-12T13:47:18.974Z,6.90
2023-03-12T13:49:55.847Z,6.80
2023-03-12T13:52:26.876Z,6.60
2023-03-12T13:55:01.269Z,6.60
2023-03-12T13:57:39.966Z,6.80
2023-03-12T14:00:17.066Z,6.80
2023-03-12T14:02:50.311Z,6.70
2023-03-12T14:05:21.328Z,6.60
2023-03-12T14:08:16.752Z,6.80
2023-03-12T14:10:52.732Z,6.90
2023-03-12T14:13:32.386Z,7.20
2023-03-12T14:16:07.149Z,6.90
2023-03-12T14:18:39.207Z,7.00
2023-03-12T14:21:14.070Z,7.20
2023-03-12T14:23:47.425Z,7.40
2023-03-12T14:26:21.466Z,7.20
2023-03-12T14:28:55.581Z,7.20
2023-03-12T14:31:29.404Z,7.20
2023-03-12T14:34:00.356Z,7.10
2023-03-12T14:36:37.038Z,7.10
2023-03-12T14:39:17.055Z,7.10
2023-03-12T14:41:50.580Z,7.30
2023-03-12T14:44:24.839Z,7.10
2023-03-12T14:47:00.625Z,7.00
2023-03-12T14:49:29.310Z,7.10
2023-03-12T14:51:59.169Z,7.10
2023-03-12T14:54:28.964Z,6.90
2023-03-12T14:56:56.822Z,7.10
2023-03-12T14:59:28.775Z,6.90
2023-03-12T15:02:01.481Z,6.70
2023-03-12T15:04:32.129Z,6.80
2023-03-12T15:07:04.806Z,6.80
2023-03-12T15:09:35.952Z,7.00
2023-03-12T15:12:07.088Z,7.00
2023-03-12T15:14:39.728Z,6.90
2023-03-12T15:17:08.633Z,6.80
2023-03-12T15:19:39.459Z,6.80
2023-03-12T15:22:12.536Z,6.80
2023-03-12T15:24:41.630Z,6.90
2023-03-12T15:27:36.435Z,6.90
2023-03-12T15:30:25.738Z,7.00
2023-03-12T15:33:11.857Z,7.00
2023-03-12T15:35:42.813Z,7.10
2023-03-12T15:38:20.448Z,7.10
2023-03-12T15:40:53.890Z,7.10
2023-03-12T15:43:24.212Z,7.30
2023-03-12T15:45:59.760Z,7.40
2023-03-12T15:48:32.188Z,7.20
2023-03-12T15:51:00.420Z,7.20
2023-03-12T15:53:32.376Z,7.00
2023-03-12T15:56:04.693Z,7.00
2023-03-12T15:58:34.540Z,7.00
2023-03-12T16:01:11.386Z,7.00
2023-03-12T16:03:39.928Z,7.20
2023-03-12T16:06:12.864Z,7.10
2023-03-12T16:08:45.383Z,6.90
2023-03-12T16:11:18.190Z,7.00
2023-03-12T16:13:48.153Z,6.90
2023-03-12T16:16:16.755Z,6.90
2023-03-12T16:18:45.433Z,7.00
2023-03-12T16:21:13.239Z,7.00
2023-03-12T16:23:42.394Z,7.10
2023-03-12T16:26:10.370Z,7.00
2023-03-12T16:28:38.188Z,7.10
2023-03-12T16:31:12.187Z,7.10
2023-03-12T16:33:40.075Z,7.00
2023-03-12T16:36:15.662Z,7.00
2023-03-12T16:38:45.475Z,7.10
2023-03-12T16:41:16.875Z,7.10
2023-03-12T16:43:49.099Z,7.10
2023-03-12T16:46:19.834Z,7.00
2023-03-12T16:48:52.523Z,7.10
2023-03-12T16:51:21.028Z,7.00
2023-03-12T16:54:01.971Z,7.00
2023-03-12T16:56:37.102Z,7.00
2023-03-12T16:59:07.951Z,6.90
2023-03-12T17:01:37.432Z,6.90
2023-03-12T17:04:05.617Z,7.00
2023-03-12T17:06:34.431Z,7.00
2023-03-12T17:09:03.720Z,6.90
2023-03-12T17:11:33.453Z,6.90
2023-03-12T17:14:04.043Z,6.90
2023-03-12T17:16:31.992Z,6.90
2023-03-12T17:18:59.818Z,6.90
2023-03-12T17:21:27.749Z,6.90
2023-03-12T17:23:55.573Z,6.90
2023-03-12T17:26:24.821Z,6.80
2023-03-12T17:28:52.562Z,6.80
2023-03-12T17:31:21.059Z,6.80
2023-03-12T17:33:48.877Z,6.70
2023-03-12T17:36:16.613Z,6.70
2023-03-12T17:38:44.452Z,6.70
2023-03-12T17:41:25.570Z,6.70
2023-03-12T17:43:58.664Z,6.70
2023-03-12T17:46:26.532Z,6.60
2023-03-12T17:48:54.523Z,6.60
2023-03-12T17:51:22.544Z,6.60
2023-03-12T17:53:51.097Z,6.60
2023-03-12T17:56:19.084Z,6.60
2023-03-12T17:58:47.173Z,6.60
2023-03-12T18:01:16.856Z,6.60
2023-03-12T18:03:44.888Z,6.60
2023-03-12T18:06:13.352Z,6.60
2023-03-12T18:08:41.174Z,6.60
2023-03-12T18:11:09.115Z,6.60
2023-03-12T18:13:38.375Z,6.60
2023-03-12T18:16:07.693Z,6.50
2023-03-12T18:18:38.946Z,6.50
2023-03-12T18:21:06.914Z,6.50
2023-03-12T18:23:34.770Z,6.50
2023-03-12T18:26:02.750Z,6.50
2023-03-12T18:28:30.525Z,6.50
2023-03-12T18:30:58.334Z,6.40
2023-03-12T18:33:26.218Z,6.40
2023-03-12T18:35:55.383Z,6.40
2023-03-12T18:38:23.390Z,6.40
2023-03-12T18:40:51.276Z,6.40
2023-03-12T18:43:21.464Z,6.30
2023-03-12T18:45:51.133Z,6.30
2023-03-12T18:48:19.019Z,6.30
2023-03-12T18:50:46.954Z,6.30
2023-03-12T18:53:16.110Z,6.30
2023-03-12T18:55:52.776Z,6.30
2023-03-12T18:58:23.446Z,6.30
2023-03-12T19:00:53.004Z,6.30
2023-03-12T19:03:21.029Z,6.30
2023-03-12T19:05:49.501Z,6.30
2023-03-12T19:08:22.837Z,6.30
2023-03-12T19:10:50.636Z,6.30
2023-03-12T19:13:18.384Z,6.30
2023-03-12T19:15:46.958Z,6.30
2023-03-12T19:18:14.771Z,6.20
2023-03-12T19:20:42.572Z,6.30
2023-03-12T19:23:10.358Z,6.20
2023-03-12T19:25:39.486Z,6.20
2023-03-12T19:28:07.400Z,6.20
2023-03-12T19:30:35.193Z,6.20
2023-03-12T19:33:03.206Z,6.20
2023-03-12T19:35:31.163Z,6.20
2023-03-12T19:37:59.545Z,6.20
2023-03-12T19:40:27.540Z,6.20
2023-03-12T19:42:56.691Z,6.20
2023-03-12T19:45:24.723Z,6.20
2023-03-12T19:47:53.173Z,6.10
2023-03-12T19:50:21.187Z,6.10
2023-03-12T19:52:49.441Z,6.10
2023-03-12T19:55:17.415Z,6.10
2023-03-12T19:57:45.216Z,6.10
2023-03-12T20:00:15.229Z,6.10
2023-03-12T20:02:43.511Z,6.10
2023-03-12T20:05:11.703Z,6.10
2023-03-12T20:07:39.517Z,6.10
2023-03-12T20:10:09.788Z,6.10
2023-03-12T20:12:38.056Z,6.10
2023-03-12T20:15:06.915Z,6.10
2023-03-12T20:17:36.123Z,6.10
2023-03-12T20:20:05.777Z,6.10
2023-03-12T20:22:36.175Z,6.10
2023-03-12T20:25:04.180Z,6.10
2023-03-12T20:27:34.035Z,6.10
2023-03-12T20:30:03.638Z,6.10
2023-03-12T20:32:31.736Z,6.10
2023-03-12T20:35:01.063Z,6.10
2023-03-12T20:37:29.160Z,6.10
2023-03-12T20:39:56.993Z,6.10
2023-03-12T20:42:24.871Z,6.10
2023-03-12T20:44:52.808Z,6.10
2023-03-12T20:47:20.730Z,6.10
2023-03-12T20:49:48.495Z,6.10
2023-03-12T20:52:19.981Z,6.20
2023-03-12T20:54:47.903Z,6.10
2023-03-12T20:57:15.898Z,6.10
2023-03-12T20:59:43.664Z,6.10
2023-03-12T21:02:14.512Z,6.10
2023-03-12T21:04:42.691Z,6.10
2023-03-12T21:07:10.744Z,6.00
2023-03-12T21:09:39.901Z,6.10
2023-03-12T21:12:07.958Z,6.10
2023-03-12T21:14:35.768Z,6.10
2023-03-12T21:17:03.842Z,6.00
2023-03-12T21:19:31.748Z,5.90
2023-03-12T21:21:59.572Z,6.00
2023-03-12T21:24:27.374Z,5.90
2023-03-12T21:26:56.518Z,5.90
2023-03-12T21:29:24.292Z,5.90
2023-03-12T21:31:53.724Z,5.90
2023-03-12T21:34:21.748Z,5.90
2023-03-12T21:36:49.550Z,6.00
2023-03-12T21:39:18.095Z,6.00
2023-03-12T21:41:45.878Z,5.90
2023-03-12T21:44:16.568Z,5.90
2023-03-12T21:46:44.668Z,5.90
2023-03-12T21:49:13.758Z,5.90
2023-03-12T21:51:41.699Z,5.90
2023-03-12T21:54:09.698Z,5.90
2023-03-12T21:56:37.606Z,5.90
2023-03-12T21:59:05.644Z,5.90
2023-03-12T22:01:34.811Z,5.90
2023-03-12T22:04:03.243Z,5.90
2023-03-12T22:06:31.119Z,5.90
2023-03-12T22:08:59.262Z,5.90
2023-03-12T22:11:27.143Z,5.90
2023-03-12T22:13:54.951Z,5.90
2023-03-12T22:16:22.871Z,5.80
2023-03-12T22:18:52.121Z,5.90
2023-03-12T22:21:21.548Z,5.90
2023-03-12T22:23:50.992Z,5.90
2023-03-12T22:26:19.823Z,5.90
2023-03-12T22:28:50.629Z,5.90
2023-03-12T22:31:19.769Z,5.90
2023-03-12T22:33:48.267Z,5.90
2023-03-12T22:36:19.060Z,5.90
2023-03-12T22:38:47.577Z,5.90
2023-03-12T22:41:17.433Z,5.90
2023-03-12T22:43:46.310Z,5.90
2023-03-12T22:46:15.820Z,6.00
2023-03-12T22:48:44.033Z,6.00
2023-03-12T22:51:12.397Z,6.00
2023-03-12T22:53:41.663Z,6.10
2023-03-12T22:56:11.423Z,6.00
2023-03-12T23:01:22.565Z,6.00
2023-03-12T23:03:50.808Z,5.90
2023-03-12T23:06:20.878Z,6.00
2023-03-12T23:08:50.322Z,5.90
2023-03-12T23:11:19.497Z,6.00
2023-03-12T23:13:48.294Z,5.90
2023-03-12T23:16:19.126Z,5.90
2023-03-12T23:18:47.777Z,5.90
2023-03-12T23:21:17.961Z,5.90
2023-03-12T23:23:46.096Z,5.90
2023-03-12T23:26:17.343Z,5.90
2023-03-12T23:28:47.334Z,5.80
2023-03-12T23:31:16.419Z,5.70
2023-03-12T23:33:44.952Z,5.70
2023-03-12T23:36:14.447Z,5.70
2023-03-12T23:38:42.328Z,5.70
2023-03-12T23:41:12.873Z,5.70
2023-03-12T23:43:42.161Z,5.70
2023-03-12T23:46:11.011Z,5.70
2023-03-12T23:48:39.690Z,5.60
2023-03-12T23:51:08.745Z,5.70
2023-03-12T23:53:37.784Z,5.70
2023-03-12T23:56:08.398Z,5.70
2023-03-12T23:58:36.963Z,5.60
